Terminal Aerodrome Forecast
Issued by NWS Charleston, WV

Current Version | Previous Version | Graphics & Text | Print | Product List | Glossary On
Versions: 1 2 3 4 5 6 7 8 9 10 11 12 13 14 15 16 17 18 19 20 21 22 23 24 25
000
FTUS41 KRLX 250246 AAA
TAFEKN
TAF AMD
KEKN 250246Z 2503/2524 00000KT P6SM SCT250
     FM250700 00000KT 4SM BR SKC
     FM251000 00000KT 1/4SM FG VV001
     FM251300 00000KT 5SM BR SCT005
     FM251400 30005KT P6SM SCT250=

USA.gov is the U.S. government's official web portal to all federal, state and local government web resources and services.